Lauritzen Yacht Harbor
Updated WEATHER every hour; Delta WATER and tide conditions; live TOWER CAM;
The FISHING report with PHOTOGRAPHS; harbor NEWS Items; before you get UNDERWAY ;
OTHER points of interest; WHO are we? WHAT can we provide? WHERE are we?

24 Hour Weather Archive

                   Temp   Wind   Hum   Dew   Wind                            
   Date    Time    Out   Chill   Out   Pt.  Speed    Hi    Dir   Rain   Bar  
 5/25/17  12:00a   56.2   47.8    --     --  10.0   20.0     W   0.00  29.770
 5/25/17   1:00a   56.1   47.0    --     --  11.0   23.0     W   0.00  29.774
 5/25/17   2:00a   55.9   54.0    --     --   5.0   18.0     W   0.00  29.778
 5/25/17   3:00a   55.4   53.4    --     --   5.0   11.0   WSW   0.00  29.773
 5/25/17   4:00a   54.9   54.9    --     --   3.0   10.0     W   0.00  29.775
 5/25/17   5:00a   53.1   53.1    --     --   1.0    6.0     N   0.00  29.796
 5/25/17   6:00a   52.6   52.6    --     --   0.0    4.0     N   0.00  29.808
 5/25/17   7:00a   55.6   55.6    --     --   1.0    9.0   SSW   0.00  29.830
 5/25/17   8:00a   62.4   62.4    --     --   2.0    8.0    SW   0.00  29.846
 5/25/17   9:00a   65.0   65.0    --     --   3.0   14.0    SE   0.00  29.858
 5/25/17  10:00a   68.2   68.2    --     --   4.0   13.0   NNW   0.00  29.855
 5/25/17  11:00a   69.9   68.7    --     --   5.0   11.0   NNW   0.00  29.856
 5/25/17  12:00p   71.0   68.4    --     --   7.0   19.0   NNW   0.00  29.858
 5/25/17   1:00p   69.9   64.3    --     --  11.0   20.0   NNW   0.00  29.858
 5/25/17   2:00p   70.2   63.9    --     --  13.0   23.0   NNW   0.00  29.847
 5/25/17   3:00p   71.3   65.7    --     --  12.0   25.0   NNW   0.00  29.844
 5/25/17   4:00p   70.7   64.5    --     --  13.0   24.0    NW   0.00  29.834
 5/25/17   5:00p   72.3   66.6    --     --  13.0   25.0   NNW   0.00  29.829
 5/25/17   6:00p   71.8   66.0    --     --  13.0   25.0   NNW   0.00  29.838
 5/25/17   7:00p   71.3   66.5    --     --  10.0   20.0    NW   0.00  29.844
 5/25/17   8:00p   66.9   61.1    --     --  10.0   22.0   NNW   0.00  29.859
 5/25/17   9:00p   59.3   51.0    --     --  11.0   20.0     N   0.00  29.883
 5/25/17  10:00p   57.0   48.1    --     --  11.0   20.0     N   0.00  29.910
 5/25/17  11:00p   56.0   46.1    --     --  12.0   23.0   WNW   0.00  29.922
 5/25/17  12:00p   55.3   45.3    --     --  12.0   23.0     W   0.00  29.937
 5/26/17  12:00a   55.3   45.3    --     --  12.0   23.0     W   0.00  29.937
 5/26/17   1:00a   55.2   46.6    --     --  10.0   20.0     N   0.00  29.943
 5/26/17   2:00a   55.4   49.4    --     --   8.0   15.0     W   0.00  29.948
 5/26/17   3:00a   55.4   52.1    --     --   6.0   14.0     W   0.00  29.955
 5/26/17   4:00a   55.2   51.9    --     --   6.0   12.0     W   0.00  29.962
 5/26/17   5:00a   55.0   51.7    --     --   6.0   13.0     W   0.00  29.972
 5/26/17   6:00a   54.8   54.8    --     --   4.0    9.0     W   0.00  29.983
 5/26/17   7:00a   56.8   54.9    --     --   5.0   12.0     N   0.00  30.011
 5/26/17   8:00a   58.5   56.7    --     --   5.0   10.0     W   0.00  30.035
 5/26/17   9:00a   61.0   61.0    --     --   2.0    7.0   WSW   0.00  30.047


Send questions or comments to:
Some of the material in this website is copyrighted © by Lauritzen Yacht Harbor and may not be used by others without our specific permission.
All rights are reserved. iPhone friendly. Viewed best with Mozilla Firefox